Time;durP1;ratioP1;P1;durP2;ratioP2;P2;SDS_P1;SDS_P2;PMS_P1;PMS_P2;Temp;Humidity;BMP_temperature;BMP_pressure;BME280_temperature;BME280_humidity;BME280_pressure;Samples;Min_cycle;Max_cycle;Signal;HPM_P1;HPM_P2
2022/11/27 00:01:20;;;;;;;17.00;9.45;;;;;;;-0.11;100.00;97520.00;5115588;28;20051;-77
2022/11/27 00:03:47;;;;;;;17.55;10.80;;;;;;;-0.16;100.00;97515.28;5115955;28;20656;-76
2022/11/27 00:06:16;;;;;;;19.38;11.23;;;;;;;-0.17;100.00;97523.56;5114967;28;20046;-76
2022/11/27 00:08:44;;;;;;;20.15;10.15;;;;;;;-0.21;100.00;97527.72;5115158;28;20064;-76
2022/11/27 00:11:14;;;;;;;16.88;9.48;;;;;;;-0.22;100.00;97532.25;5115089;28;20505;-77
2022/11/27 00:13:41;;;;;;;17.60;9.65;;;;;;;-0.23;100.00;97535.16;5117971;27;20055;-76
2022/11/27 00:16:08;;;;;;;19.63;9.45;;;;;;;-0.21;100.00;97527.72;5114958;27;20055;-78
2022/11/27 00:18:36;;;;;;;15.00;8.88;;;;;;;-0.21;100.00;97538.41;5115819;27;20039;-78
2022/11/27 00:21:04;;;;;;;16.80;9.68;;;;;;;-0.20;100.00;97534.72;5114542;28;20427;-77
2022/11/27 00:23:32;;;;;;;20.52;11.23;;;;;;;-0.21;100.00;97538.41;5114862;28;20050;-76
2022/11/27 00:25:58;;;;;;;17.05;9.70;;;;;;;-0.22;100.00;97531.44;5115509;27;20046;-77
2022/11/27 00:28:28;;;;;;;16.10;9.27;;;;;;;-0.28;99.63;97525.91;5114906;27;20374;-76
2022/11/27 00:30:58;;;;;;;19.27;10.10;;;;;;;-0.33;99.57;97531.09;5115385;28;20043;-77
2022/11/27 00:33:26;;;;;;;16.98;9.20;;;;;;;-0.40;99.08;97530.34;5114822;27;20531;-76
2022/11/27 00:35:53;;;;;;;17.92;10.35;;;;;;;-0.54;98.91;97531.50;5115114;27;20073;-77
2022/11/27 00:38:19;;;;;;;19.08;9.80;;;;;;;-0.59;98.59;97528.66;5114465;27;20046;-76
2022/11/27 00:40:46;;;;;;;15.68;9.27;;;;;;;-0.61;98.50;97534.22;5115374;28;20044;-76
2022/11/27 00:43:13;;;;;;;16.77;9.38;;;;;;;-0.61;98.91;97533.41;5116300;27;20044;-77
2022/11/27 00:45:41;;;;;;;19.05;9.65;;;;;;;-0.57;99.59;97526.59;5115687;27;20587;-78
2022/11/27 00:48:08;;;;;;;15.30;9.07;;;;;;;-0.57;100.00;97519.41;5114722;27;20046;-77
2022/11/27 00:50:36;;;;;;;14.68;9.35;;;;;;;-0.58;100.00;97512.38;5114652;27;20043;-76
2022/11/27 00:53:03;;;;;;;16.98;9.60;;;;;;;-0.55;100.00;97500.44;5114123;28;20043;-78
2022/11/27 00:55:30;;;;;;;17.20;9.63;;;;;;;-0.55;100.00;97503.94;5114400;28;20043;-77
2022/11/27 00:57:56;;;;;;;14.57;9.35;;;;;;;-0.53;100.00;97503.69;5114766;27;20062;-76
2022/11/27 01:00:24;;;;;;;19.75;9.65;;;;;;;-0.51;100.00;97492.81;5113914;27;20043;-78
2022/11/27 01:02:53;;;;;;;22.08;11.57;;;;;;;-0.49;100.00;97499.56;5113474;27;20482;-77
2022/11/27 01:05:20;;;;;;;21.52;11.40;;;;;;;-0.49;100.00;97499.56;5113392;28;20047;-77
2022/11/27 01:07:47;;;;;;;20.55;11.35;;;;;;;-0.52;100.00;97502.69;5112699;28;20040;-77
2022/11/27 01:10:14;;;;;;;17.20;9.80;;;;;;;-0.65;99.91;97500.09;5113123;28;20043;-76
2022/11/27 01:12:40;;;;;;;16.70;9.65;;;;;;;-0.71;99.27;97500.97;5110292;27;20039;-77
2022/11/27 01:15:08;;;;;;;16.33;9.38;;;;;;;-0.73;99.57;97489.66;5113530;28;20047;-76
2022/11/27 01:17:34;;;;;;;16.58;9.68;;;;;;;-0.70;99.59;97486.56;5114246;28;20055;-76
2022/11/27 01:20:05;;;;;;;22.08;10.18;;;;;;;-0.65;99.58;97490.22;5114566;28;20046;-76
2022/11/27 01:22:33;;;;;;;19.92;11.45;;;;;;;-0.61;99.28;97490.63;5115290;28;20115;-76
2022/11/27 01:25:01;;;;;;;20.25;10.80;;;;;;;-0.62;99.51;97491.66;5115615;27;20043;-76
2022/11/27 01:27:27;;;;;;;19.17;10.95;;;;;;;-0.62;99.82;97488.97;5115102;27;20039;-75
2022/11/27 01:29:54;;;;;;;21.40;10.60;;;;;;;-0.63;100.00;97485.47;5115567;28;20554;-76
2022/11/27 01:32:21;;;;;;;19.45;10.85;;;;;;;-0.59;100.00;97483.19;5113646;27;20490;-77
2022/11/27 01:34:48;;;;;;;24.02;13.05;;;;;;;-0.62;100.00;97472.94;5114457;28;20043;-76
2022/11/27 01:37:15;;;;;;;21.25;11.75;;;;;;;-0.64;100.00;97469.63;5113244;27;20517;-76
2022/11/27 01:39:42;;;;;;;19.10;11.60;;;;;;;-0.66;100.00;97471.72;5114101;27;20407;-76
2022/11/27 01:42:10;;;;;;;21.73;11.52;;;;;;;-0.66;100.00;97469.06;5113962;27;20086;-76
2022/11/27 01:44:53;;;;;;;24.35;12.18;;;;;;;-0.68;100.00;97468.44;5113065;27;20035;-77
2022/11/27 01:47:32;;;;;;;17.10;8.52;;;;;;;-0.68;100.00;97474.63;5112646;27;20404;-78
2022/11/27 01:50:05;;;;;;;21.70;12.07;;;;;;;-0.67;100.00;97478.94;5113058;27;20036;-77
2022/11/27 01:52:36;;;;;;;20.35;11.95;;;;;;;-0.70;100.00;97474.00;5113276;28;20046;-76
2022/11/27 01:55:07;;;;;;;20.75;11.52;;;;;;;-0.71;100.00;97479.59;5112888;27;20044;-79
2022/11/27 01:57:39;;;;;;;18.52;10.20;;;;;;;-0.73;100.00;97478.97;5114131;27;20054;-77
2022/11/27 02:00:08;;;;;;;21.40;11.70;;;;;;;-0.74;100.00;97480.81;5114232;28;20055;-76
2022/11/27 02:02:35;;;;;;;19.83;11.65;;;;;;;-0.74;100.00;97475.47;5113851;27;20282;-79
2022/11/27 02:05:02;;;;;;;19.73;11.20;;;;;;;-0.71;100.00;97479.59;5113977;28;20071;-77
2022/11/27 02:07:28;;;;;;;23.15;12.32;;;;;;;-0.67;100.00;97475.44;5113741;28;20042;-77
2022/11/27 02:09:56;;;;;;;23.08;12.20;;;;;;;-0.64;100.00;97475.00;5114155;28;20398;-76
2022/11/27 02:12:27;;;;;;;21.20;11.82;;;;;;;-0.60;100.00;97474.34;5113843;27;20039;-76
2022/11/27 02:15:01;;;;;;;21.20;12.15;;;;;;;-0.55;100.00;97454.97;5113702;27;20113;-79
2022/11/27 02:17:36;;;;;;;20.50;11.07;;;;;;;-0.52;100.00;97451.84;5113086;28;20569;-76
2022/11/27 02:20:19;;;;;;;20.48;11.02;;;;;;;-0.52;100.00;97446.50;5112734;28;20046;-77
2022/11/27 02:23:01;;;;;;;20.83;10.77;;;;;;;-0.50;100.00;97444.41;5113330;28;20039;-79
2022/11/27 02:25:42;;;;;;;18.77;10.80;;;;;;;-0.51;100.00;97448.13;5113702;28;20051;-79
2022/11/27 02:28:29;;;;;;;17.15;9.75;;;;;;;-0.55;100.00;97447.75;5113011;27;20044;-79
2022/11/27 02:31:05;;;;;;;21.00;10.90;;;;;;;-0.54;100.00;97443.22;5092385;28;20056;-79
2022/11/27 02:33:34;;;;;;;21.77;10.43;;;;;;;-0.53;100.00;97442.16;5108278;28;20051;-78
2022/11/27 02:36:08;;;;;;;16.83;9.20;;;;;;;-0.52;100.00;97435.78;5113616;28;20036;-78
2022/11/27 02:38:39;;;;;;;17.30;9.80;;;;;;;-0.53;100.00;97434.94;5113555;28;20134;-78
2022/11/27 02:41:20;;;;;;;16.85;9.35;;;;;;;-0.50;100.00;97433.72;5115071;28;20054;-78
2022/11/27 02:43:50;;;;;;;16.58;9.40;;;;;;;-0.48;100.00;97431.63;5116374;27;20044;-77
2022/11/27 02:46:20;;;;;;;17.00;9.38;;;;;;;-0.47;100.00;97435.09;5112596;27;20074;-75
2022/11/27 02:48:49;;;;;;;16.33;8.55;;;;;;;-0.50;100.00;97417.66;5112897;28;20052;-78
2022/11/27 02:51:20;;;;;;;13.70;7.90;;;;;;;-0.51;100.00;97399.97;5112869;28;20495;-77
2022/11/27 02:53:50;;;;;;;14.77;8.02;;;;;;;-0.51;100.00;97399.97;5113099;28;20046;-77
2022/11/27 02:56:20;;;;;;;15.57;9.27;;;;;;;-0.51;100.00;97399.16;5112491;28;20049;-76
2022/11/27 02:58:48;;;;;;;13.90;8.82;;;;;;;-0.50;100.00;97396.25;5113253;28;20046;-78
2022/11/27 03:01:17;;;;;;;14.65;8.73;;;;;;;-0.52;100.00;97395.66;5112710;28;20040;-79
2022/11/27 03:03:48;;;;;;;14.55;8.40;;;;;;;-0.55;100.00;97396.91;5113115;28;20035;-79
2022/11/27 03:06:20;;;;;;;14.38;8.55;;;;;;;-0.58;100.00;97383.16;5115684;27;20052;-78
2022/11/27 03:08:53;;;;;;;12.05;7.60;;;;;;;-0.63;100.00;97383.00;5117677;28;20042;-76
2022/11/27 03:11:20;;;;;;;13.13;7.72;;;;;;;-0.66;100.00;97386.94;5116660;27;20058;-76
2022/11/27 03:13:53;;;;;;;13.88;8.05;;;;;;;-0.67;100.00;97389.84;5119298;27;20043;-78
2022/11/27 03:16:28;;;;;;;10.98;5.82;;;;;;;-0.69;100.00;97389.22;5116948;28;20047;-78
2022/11/27 03:19:02;;;;;;;12.77;7.97;;;;;;;-0.71;100.00;97380.63;5118072;28;20145;-78
2022/11/27 03:21:34;;;;;;;13.55;8.20;;;;;;;-0.70;100.00;97372.38;5116953;27;20043;-76
2022/11/27 03:24:01;;;;;;;13.55;8.63;;;;;;;-0.69;100.00;97370.50;5117206;27;20039;-77
2022/11/27 03:26:28;;;;;;;15.50;8.50;;;;;;;-0.70;100.00;97372.38;5117331;27;20040;-78
2022/11/27 03:28:56;;;;;;;14.20;8.45;;;;;;;-0.69;99.98;97381.22;5117401;27;20043;-79
2022/11/27 03:31:23;;;;;;;13.65;8.32;;;;;;;-0.68;100.00;97372.13;5116092;28;20131;-77
2022/11/27 03:33:50;;;;;;;15.05;9.07;;;;;;;-0.68;99.95;97370.31;5116682;28;20047;-78
2022/11/27 03:36:22;;;;;;;13.77;8.57;;;;;;;-0.70;100.00;97359.00;5115792;27;20043;-77
2022/11/27 03:38:51;;;;;;;16.45;9.82;;;;;;;-0.72;100.00;97349.56;5116843;28;20400;-78
2022/11/27 03:41:25;;;;;;;15.35;8.65;;;;;;;-0.73;100.00;97359.47;5117046;27;20039;-76
2022/11/27 03:44:03;;;;;;;15.48;9.10;;;;;;;-0.73;100.00;97355.94;5115608;28;20043;-78
2022/11/27 03:46:43;;;;;;;16.20;8.98;;;;;;;-0.75;100.00;97358.03;5117076;28;20046;-76
2022/11/27 03:49:18;;;;;;;16.10;8.98;;;;;;;-0.74;100.00;97356.97;5115928;27;20502;-77
2022/11/27 03:51:52;;;;;;;15.40;8.68;;;;;;;-0.74;100.00;97351.63;5116534;28;20398;-77
2022/11/27 03:54:30;;;;;;;17.63;9.55;;;;;;;-0.72;100.00;97354.91;5116925;28;20059;-78
2022/11/27 03:57:06;;;;;;;16.65;8.93;;;;;;;-0.69;100.00;97352.59;5115681;27;20044;-78
2022/11/27 03:59:38;;;;;;;14.82;8.90;;;;;;;-0.67;100.00;97363.09;5116744;28;20040;-77
2022/11/27 04:02:05;;;;;;;16.53;9.37;;;;;;;-0.68;100.00;97356.09;5116120;28;20040;-77
2022/11/27 04:04:32;;;;;;;20.73;10.13;;;;;;;-0.68;99.76;97356.09;5118443;27;20130;-77
2022/11/27 04:06:59;;;;;;;14.85;8.90;;;;;;;-0.67;99.40;97357.75;5117193;27;20044;-78
2022/11/27 04:09:26;;;;;;;14.70;8.90;;;;;;;-0.67;99.34;97352.41;5117756;27;20046;-77
2022/11/27 04:11:53;;;;;;;17.05;9.27;;;;;;;-0.68;99.65;97366.78;5120676;27;20401;-79
2022/11/27 04:14:19;;;;;;;15.88;8.88;;;;;;;-0.70;99.98;97374.22;5115506;28;20451;-77
2022/11/27 04:16:46;;;;;;;16.20;9.30;;;;;;;-0.74;100.00;97378.38;5118113;27;20086;-77
2022/11/27 04:19:12;;;;;;;15.55;9.30;;;;;;;-0.77;100.00;97368.13;5117422;27;20043;-77
2022/11/27 04:21:39;;;;;;;16.85;8.88;;;;;;;-0.81;100.00;97373.91;5116016;27;20039;-78
2022/11/27 04:24:07;;;;;;;16.08;9.20;;;;;;;-0.83;100.00;97365.31;5115865;27;20491;-78
2022/11/27 04:26:33;;;;;;;14.70;8.60;;;;;;;-0.85;100.00;97361.19;5116800;28;20040;-78
2022/11/27 04:29:00;;;;;;;13.95;7.82;;;;;;;-0.91;100.00;97357.56;5116557;28;20042;-78
2022/11/27 04:31:26;;;;;;;23.45;8.05;;;;;;;-0.91;100.00;97359.41;5116454;28;20048;-76
2022/11/27 04:33:53;;;;;;;12.23;7.57;;;;;;;-0.94;100.00;97358.00;5116147;28;20040;-76
2022/11/27 04:36:20;;;;;;;12.25;7.35;;;;;;;-0.95;100.00;97361.69;5114994;28;20044;-77
2022/11/27 04:38:46;;;;;;;11.88;6.88;;;;;;;-0.91;100.00;97357.56;5118206;27;20099;-78
2022/11/27 04:41:14;;;;;;;10.10;6.75;;;;;;;-0.87;100.00;97353.41;5117752;28;20043;-76
2022/11/27 04:43:42;;;;;;;11.02;7.05;;;;;;;-0.85;100.00;97356.66;5117284;28;20044;-76
2022/11/27 04:46:08;;;;;;;12.27;7.13;;;;;;;-0.82;100.00;97355.44;5118797;28;20059;-76
2022/11/27 04:48:35;;;;;;;12.23;7.35;;;;;;;-0.81;100.00;97352.53;5116798;28;20559;-76
2022/11/27 04:51:02;;;;;;;12.35;7.70;;;;;;;-0.81;100.00;97355.19;5115883;28;20624;-77
2022/11/27 04:53:29;;;;;;;12.02;7.88;;;;;;;-0.83;100.00;97343.09;5115740;28;20479;-76
2022/11/27 04:55:55;;;;;;;13.98;7.72;;;;;;;-0.90;100.00;97337.78;5115089;28;20131;-76
2022/11/27 04:58:23;;;;;;;14.15;7.82;;;;;;;-0.96;100.00;97343.22;5114254;27;20050;-78
2022/11/27 05:00:50;;;;;;;12.23;7.53;;;;;;;-1.00;100.00;97336.66;5115526;28;20043;-77
2022/11/27 05:03:16;;;;;;;13.50;7.95;;;;;;;-1.06;100.00;97333.84;5114130;28;20039;-79
2022/11/27 05:05:43;;;;;;;13.20;7.28;;;;;;;-1.06;100.00;97336.50;5114354;28;20040;-77
2022/11/27 05:08:09;;;;;;;12.10;8.07;;;;;;;-1.09;99.72;97334.28;5114724;27;20047;-77
2022/11/27 05:10:37;;;;;;;13.82;8.68;;;;;;;-1.10;99.49;97338.00;5114940;28;20040;-76
2022/11/27 05:13:03;;;;;;;11.75;7.22;;;;;;;-1.12;99.37;97339.25;5115194;27;20044;-77
2022/11/27 05:15:31;;;;;;;12.90;7.30;;;;;;;-1.13;99.26;97342.97;5114801;27;20043;-76
2022/11/27 05:17:58;;;;;;;12.63;7.50;;;;;;;-1.15;99.29;97345.03;5114795;27;20040;-79
2022/11/27 05:20:25;;;;;;;11.35;6.88;;;;;;;-1.18;98.99;97345.47;5113992;27;20039;-79
2022/11/27 05:22:51;;;;;;;12.60;7.18;;;;;;;-1.20;98.87;97347.53;5114719;28;20042;-79
2022/11/27 05:25:18;;;;;;;10.65;6.65;;;;;;;-1.21;98.71;97348.56;5114197;28;20052;-77
2022/11/27 05:27:44;;;;;;;11.68;6.93;;;;;;;-1.24;98.87;97344.50;5114511;28;20050;-77
2022/11/27 05:30:11;;;;;;;10.55;6.57;;;;;;;-1.24;98.73;97338.34;5112976;28;20043;-77
2022/11/27 05:32:39;;;;;;;11.95;6.85;;;;;;;-1.28;98.51;97335.28;5114462;27;20040;-76
2022/11/27 05:35:06;;;;;;;11.40;6.90;;;;;;;-1.29;98.32;97332.84;5113885;28;20058;-77
2022/11/27 05:37:34;;;;;;;9.45;6.40;;;;;;;-1.30;98.44;97341.88;5115134;28;20059;-78
2022/11/27 05:40:01;;;;;;;11.75;7.18;;;;;;;-1.34;98.48;97341.50;5114697;27;20062;-79
2022/11/27 05:42:27;;;;;;;12.13;7.47;;;;;;;-1.36;98.07;97352.41;5115900;27;20043;-78
2022/11/27 05:44:54;;;;;;;12.38;7.10;;;;;;;-1.41;97.68;97352.25;5114579;28;20495;-78
2022/11/27 05:47:21;;;;;;;11.55;6.95;;;;;;;-1.44;97.48;97363.34;5093914;28;20044;-78
2022/11/27 05:49:48;;;;;;;11.25;6.45;;;;;;;-1.49;97.11;97359.69;5093994;28;20044;-78
2022/11/27 05:52:15;;;;;;;12.38;7.60;;;;;;;-1.51;97.22;97362.59;5097096;28;20050;-77
2022/11/27 05:54:41;;;;;;;10.95;6.60;;;;;;;-1.52;97.43;97354.78;5114820;28;20042;-78
2022/11/27 05:57:08;;;;;;;10.05;6.18;;;;;;;-1.53;97.57;97348.63;5113992;28;20042;-79
2022/11/27 05:59:34;;;;;;;10.38;6.53;;;;;;;-1.54;97.78;97338.97;5113972;27;20039;-78
2022/11/27 06:02:01;;;;;;;9.40;6.50;;;;;;;-1.55;97.83;97340.00;5114244;28;20047;-78
2022/11/27 06:04:28;;;;;;;12.82;6.95;;;;;;;-1.54;97.85;97341.66;5113598;28;20501;-76
2022/11/27 06:06:55;;;;;;;10.23;6.65;;;;;;;-1.59;98.26;97344.16;5113511;28;20054;-79
2022/11/27 06:09:22;;;;;;;10.43;6.50;;;;;;;-1.62;98.34;97339.22;5112662;28;20058;-79
2022/11/27 06:11:48;;;;;;;10.90;6.30;;;;;;;-1.62;98.46;97328.53;5115799;27;20502;-76
2022/11/27 06:14:15;;;;;;;9.52;6.20;;;;;;;-1.59;98.40;97322.78;5113094;27;20043;-77
2022/11/27 06:16:42;;;;;;;9.65;5.95;;;;;;;-1.56;98.59;97322.38;5113815;28;20507;-77
2022/11/27 06:19:08;;;;;;;11.70;7.07;;;;;;;-1.51;98.56;97324.34;5113031;28;20200;-76
2022/11/27 06:21:35;;;;;;;9.93;6.70;;;;;;;-1.47;98.37;97328.22;5112319;28;20047;-76
2022/11/27 06:24:03;;;;;;;11.82;6.88;;;;;;;-1.45;98.58;97324.31;5113151;28;20047;-76
2022/11/27 06:26:31;;;;;;;11.02;6.63;;;;;;;-1.42;98.38;97334.56;5112484;28;20693;-76
2022/11/27 06:28:59;;;;;;;21.10;7.35;;;;;;;-1.40;98.32;97327.16;5113150;28;20119;-77
2022/11/27 06:31:28;;;;;;;19.25;6.97;;;;;;;-1.38;98.23;97329.59;5112567;27;20039;-77
2022/11/27 06:33:56;;;;;;;11.43;6.72;;;;;;;-1.33;98.12;97335.13;5113927;28;20043;-76
2022/11/27 06:36:27;;;;;;;68.78;8.70;;;;;;;-1.32;97.58;97332.22;5112793;28;20072;-79
2022/11/27 06:38:53;;;;;;;35.33;7.07;;;;;;;-1.35;97.56;97338.00;5113549;28;20471;-76
2022/11/27 06:41:25;;;;;;;9.57;5.85;;;;;;;-1.38;97.63;97346.44;5111949;28;20043;-77
2022/11/27 06:43:51;;;;;;;13.15;6.28;;;;;;;-1.42;97.93;97344.44;5108983;28;20039;-78
2022/11/27 06:46:20;;;;;;;9.82;6.47;;;;;;;-1.44;98.03;97347.31;5111971;28;20055;-78
2022/11/27 06:48:49;;;;;;;16.00;6.35;;;;;;;-1.42;98.25;97345.25;5111925;28;20054;-77
2022/11/27 06:51:20;;;;;;;17.48;7.40;;;;;;;-1.37;98.07;97336.56;5112229;28;20122;-79
2022/11/27 06:53:46;;;;;;;10.15;6.78;;;;;;;-1.32;98.04;97339.41;5112831;27;20043;-79
2022/11/27 06:56:15;;;;;;;10.95;6.80;;;;;;;-1.33;98.07;97327.91;5112178;28;20413;-76
2022/11/27 06:58:43;;;;;;;10.35;6.45;;;;;;;-1.34;98.41;97336.97;5112716;28;20035;-76
2022/11/27 07:01:12;;;;;;;13.18;6.82;;;;;;;-1.27;98.44;97346.78;5111992;28;20040;-77
2022/11/27 07:03:39;;;;;;;13.60;6.93;;;;;;;-1.24;98.66;97344.50;5111215;28;20040;-76
2022/11/27 07:06:09;;;;;;;16.58;7.50;;;;;;;-1.22;98.74;97349.63;5112315;28;20046;-76
2022/11/27 07:08:36;;;;;;;12.90;6.90;;;;;;;-1.21;98.64;97337.88;5112112;28;20039;-76
2022/11/27 07:11:04;;;;;;;10.82;6.57;;;;;;;-1.22;98.57;97338.94;5111762;28;20035;-78
2022/11/27 07:13:31;;;;;;;10.07;6.65;;;;;;;-1.20;98.39;97342.19;5115395;28;20043;-80
2022/11/27 07:16:01;;;;;;;14.75;6.63;;;;;;;-1.22;98.66;97338.94;5111551;28;20050;-78
2022/11/27 07:18:28;;;;;;;10.40;6.22;;;;;;;-1.18;98.66;97345.47;5110934;28;20050;-76
2022/11/27 07:20:54;;;;;;;9.93;6.50;;;;;;;-1.13;98.53;97334.94;5111075;28;20414;-79
2022/11/27 07:23:21;;;;;;;10.65;6.68;;;;;;;-1.12;98.54;97332.03;5110884;28;20475;-79
2022/11/27 07:25:50;;;;;;;8.35;5.75;;;;;;;-1.05;98.54;97342.66;5111266;28;20047;-77
2022/11/27 07:28:16;;;;;;;11.93;5.97;;;;;;;-1.10;98.40;97342.50;5111588;28;20445;-78
2022/11/27 07:30:43;;;;;;;7.15;5.55;;;;;;;-1.11;98.23;97335.53;5112672;28;20082;-78
2022/11/27 07:33:11;;;;;;;8.85;5.85;;;;;;;-1.07;98.01;97342.09;5111569;28;20044;-76
2022/11/27 07:35:37;;;;;;;10.75;6.10;;;;;;;-1.14;97.56;97349.34;5112981;28;20043;-78
2022/11/27 07:38:04;;;;;;;8.93;5.32;;;;;;;-1.13;97.53;97346.47;5111647;28;20049;-77
2022/11/27 07:40:30;;;;;;;7.63;5.35;;;;;;;-1.11;97.54;97343.56;5112430;28;20122;-78
2022/11/27 07:42:58;;;;;;;8.38;5.50;;;;;;;-1.05;97.65;97335.47;5115263;28;20047;-77
2022/11/27 07:45:25;;;;;;;11.07;6.90;;;;;;;-0.98;97.79;97331.94;5110949;28;20044;-79
2022/11/27 07:47:51;;;;;;;10.63;6.35;;;;;;;-0.90;97.68;97337.78;5112464;28;20687;-77
2022/11/27 07:50:19;;;;;;;26.15;6.72;;;;;;;-0.82;97.63;97334.84;5112063;28;20070;-78
2022/11/27 07:52:46;;;;;;;10.00;6.22;;;;;;;-0.80;97.36;97327.41;5113869;28;20096;-77
2022/11/27 07:55:13;;;;;;;9.55;6.18;;;;;;;-0.76;97.36;97329.66;5115121;28;20077;-77
2022/11/27 07:57:41;;;;;;;16.27;5.93;;;;;;;-0.83;96.95;97338.56;5116021;28;20435;-78
2022/11/27 08:00:09;;;;;;;19.10;6.65;;;;;;;-0.81;97.24;97323.09;5114648;28;20139;-78
2022/11/27 08:02:36;;;;;;;9.27;5.20;;;;;;;-0.84;96.74;97326.22;5115284;28;20043;-79
2022/11/27 08:05:02;;;;;;;6.95;4.88;;;;;;;-0.84;96.73;97312.84;5114335;27;20126;-77
2022/11/27 08:07:30;;;;;;;9.65;5.30;;;;;;;-0.84;96.32;97309.34;5115425;27;20047;-77
2022/11/27 08:09:58;;;;;;;8.82;5.15;;;;;;;-0.81;96.87;97319.63;5114885;27;20043;-77
2022/11/27 08:12:25;;;;;;;10.75;5.85;;;;;;;-0.81;96.95;97309.72;5118273;27;20063;-77
2022/11/27 08:14:52;;;;;;;13.02;6.07;;;;;;;-0.79;97.30;97304.97;5116104;28;20127;-79
2022/11/27 08:17:19;;;;;;;18.80;6.10;;;;;;;-0.75;97.41;97301.88;5115283;27;20039;-77
2022/11/27 08:19:45;;;;;;;9.32;5.53;;;;;;;-0.69;97.69;97301.78;5115359;28;20039;-77
2022/11/27 08:22:19;;;;;;;12.10;6.07;;;;;;;-0.55;97.69;97289.09;5114700;27;20048;-75
2022/11/27 08:24:47;;;;;;;16.10;5.90;;;;;;;-0.49;97.88;97280.16;5115183;27;20583;-77
2022/11/27 08:27:15;;;;;;;10.80;5.72;;;;;;;-0.43;98.09;97273.91;5115083;28;20058;-77
2022/11/27 08:29:41;;;;;;;15.68;5.80;;;;;;;-0.34;98.06;97277.09;5114911;27;20517;-77
2022/11/27 08:32:10;;;;;;;11.60;6.38;;;;;;;-0.27;98.09;97273.28;5114397;28;20046;-79
2022/11/27 08:34:37;;;;;;;9.80;5.88;;;;;;;-0.11;98.19;97260.28;5115189;27;20051;-77
2022/11/27 08:37:04;;;;;;;9.88;6.20;;;;;;;-0.02;97.95;97266.97;5114693;28;20679;-76
2022/11/27 08:39:30;;;;;;;15.90;6.55;;;;;;;0.09;97.83;97263.50;5115544;27;20507;-77
2022/11/27 08:41:59;;;;;;;9.65;5.88;;;;;;;0.20;97.84;97276.09;5118945;27;20040;-76
2022/11/27 08:44:25;;;;;;;15.68;6.65;;;;;;;0.27;97.57;97283.25;5115696;28;20039;-77
2022/11/27 08:46:52;;;;;;;9.07;6.60;;;;;;;0.31;97.75;97284.41;5115911;28;20115;-76
2022/11/27 08:49:18;;;;;;;24.98;7.03;;;;;;;0.23;97.79;97272.97;5114906;28;20078;-77
2022/11/27 08:51:45;;;;;;;10.88;6.07;;;;;;;0.39;97.42;97284.06;5115407;28;20048;-77
2022/11/27 08:54:15;;;;;;;10.77;5.35;;;;;;;0.46;97.39;97290.13;5115330;28;20097;-77
2022/11/27 08:56:41;;;;;;;11.40;5.25;;;;;;;0.53;97.42;97285.50;5116677;28;20046;-77
2022/11/27 08:59:09;;;;;;;9.05;5.80;;;;;;;0.60;97.20;97278.16;5115900;27;20043;-79
2022/11/27 09:01:36;;;;;;;11.88;5.80;;;;;;;0.75;96.96;97280.41;5117368;28;20040;-78
2022/11/27 09:04:02;;;;;;;7.82;5.38;;;;;;;0.78;96.18;97279.91;5117225;28;20043;-78
2022/11/27 09:06:32;;;;;;;11.05;5.30;;;;;;;0.80;95.96;97268.97;5117304;28;20047;-78
2022/11/27 09:09:00;;;;;;;10.43;5.45;;;;;;;0.74;94.30;97268.84;5117851;27;20089;-78
2022/11/27 09:11:28;;;;;;;7.65;5.13;;;;;;;0.78;94.67;97264.66;5116480;28;20103;-78
2022/11/27 09:13:54;;;;;;;9.32;5.82;;;;;;;0.79;94.17;97265.47;5116747;28;20067;-79
2022/11/27 09:16:22;;;;;;;10.10;6.20;;;;;;;0.78;94.49;97270.03;5116624;28;20043;-78
2022/11/27 09:18:51;;;;;;;12.75;6.57;;;;;;;0.70;94.21;97267.69;5116786;27;20054;-79
2022/11/27 09:21:19;;;;;;;14.85;7.40;;;;;;;0.71;94.23;97265.81;5116812;28;20052;-78
2022/11/27 09:23:47;;;;;;;12.55;7.22;;;;;;;0.77;94.06;97263.00;5117293;27;20126;-77
2022/11/27 09:26:16;;;;;;;13.82;7.03;;;;;;;0.80;94.10;97260.94;5117514;28;20134;-80
2022/11/27 09:28:43;;;;;;;14.95;8.73;;;;;;;0.82;94.30;97261.50;5118822;28;20127;-77
2022/11/27 09:31:12;;;;;;;13.30;8.27;;;;;;;0.84;94.68;97267.47;5115617;27;20047;-77
2022/11/27 09:33:41;;;;;;;21.27;8.55;;;;;;;0.91;94.56;97270.84;5117921;27;20047;-77
2022/11/27 09:36:09;;;;;;;15.70;7.47;;;;;;;0.94;94.97;97275.72;5118290;27;20065;-78
2022/11/27 09:38:37;;;;;;;13.80;8.00;;;;;;;0.96;95.23;97271.75;5120374;28;20074;-79
2022/11/27 09:41:15;;;;;;;14.50;8.40;;;;;;;1.11;95.49;97262.44;5119979;28;20044;-78
2022/11/27 09:43:45;;;;;;;16.13;8.30;;;;;;;1.18;95.57;97258.56;5123710;27;20045;-79
2022/11/27 09:46:20;;;;;;;21.33;9.32;;;;;;;1.14;95.04;97252.03;5120356;28;20130;-78
2022/11/27 09:48:51;;;;;;;14.43;8.43;;;;;;;1.25;95.23;97245.00;5120666;28;20044;-81
2022/11/27 09:51:25;;;;;;;18.83;9.90;;;;;;;1.28;95.30;97241.84;5120280;27;20049;-78
2022/11/27 09:53:57;;;;;;;26.00;9.63;;;;;;;1.37;94.88;97235.06;5119502;28;20139;-79
2022/11/27 09:56:25;;;;;;;13.93;7.67;;;;;;;1.32;94.34;97231.47;5119982;28;20039;-79
2022/11/27 09:58:57;;;;;;;19.67;9.88;;;;;;;1.19;93.95;97227.16;5119854;28;20288;-78
2022/11/27 10:01:26;;;;;;;20.42;10.38;;;;;;;1.24;93.84;97228.09;5118557;28;20035;-78
2022/11/27 10:03:55;;;;;;;20.95;10.30;;;;;;;1.26;94.50;97223.31;5119221;28;20044;-78
2022/11/27 10:06:27;;;;;;;18.83;9.68;;;;;;;1.35;93.79;97214.88;5116913;28;20080;-78
2022/11/27 10:09:11;;;;;;;19.52;10.65;;;;;;;1.34;93.68;97224.00;5117451;28;20514;-78
2022/11/27 10:11:44;;;;;;;;;;;;;;;1.28;93.37;97215.84;5118742;27;20126;-76
2022/11/27 10:14:27;;;;;;;20.48;10.27;;;;;;;1.28;93.91;97202.44;5115919;27;20271;-76
2022/11/27 10:17:00;;;;;;;18.88;9.68;;;;;;;1.32;93.58;97204.66;5113047;28;20184;-77
2022/11/27 10:19:34;;;;;;;14.85;7.90;;;;;;;1.27;94.03;97206.16;5112516;28;20036;-75
2022/11/27 10:22:05;;;;;;;19.92;10.35;;;;;;;1.29;93.77;97201.38;5113370;28;20066;-77
2022/11/27 10:24:41;;;;;;;19.02;10.50;;;;;;;1.35;94.40;97198.78;5117632;27;20479;-76
2022/11/27 10:27:15;;;;;;;17.35;10.38;;;;;;;1.30;94.58;97192.28;5104283;27;20064;-75
2022/11/27 10:29:46;;;;;;;16.83;9.95;;;;;;;1.39;94.21;97181.16;5115164;28;20048;-76
2022/11/27 10:32:17;;;;;;;15.45;9.18;;;;;;;1.47;94.26;97175.41;5114362;28;20103;-78
2022/11/27 10:34:49;;;;;;;14.85;9.40;;;;;;;1.54;94.06;97173.41;5114337;28;20055;-78
2022/11/27 10:37:22;;;;;;;13.73;7.78;;;;;;;1.53;93.52;97174.47;5114665;28;20044;-77
2022/11/27 10:39:53;;;;;;;12.88;7.43;;;;;;;1.52;92.84;97173.66;5114770;28;20490;-77
2022/11/27 10:42:27;;;;;;;12.90;7.82;;;;;;;1.56;92.50;97173.97;5117823;27;20047;-77
2022/11/27 10:44:58;;;;;;;;;;;;;;;1.62;92.84;97164.97;5115656;28;20118;-77
2022/11/27 10:47:28;;;;;;;15.25;8.68;;;;;;;1.77;92.71;97159.84;5116314;28;20355;-76
2022/11/27 10:49:56;;;;;;;13.35;8.45;;;;;;;1.85;93.00;97163.22;5115016;28;20051;-76
2022/11/27 10:52:23;;;;;;;18.65;8.82;;;;;;;1.94;93.28;97159.06;5114838;28;20043;-76
2022/11/27 10:54:55;;;;;;;14.07;8.32;;;;;;;1.89;92.76;97167.84;5118659;28;20044;-76
2022/11/27 10:57:48;;;;;;;16.73;9.38;;;;;;;1.83;92.35;97147.34;5120144;28;20056;-77
2022/11/27 11:00:20;;;;;;;21.25;9.50;;;;;;;1.80;92.06;97143.25;5116654;28;20121;-78
2022/11/27 11:02:46;;;;;;;16.98;8.93;;;;;;;1.78;91.84;97140.00;5118061;28;20051;-76
2022/11/27 11:05:21;;;;;;;17.85;10.00;;;;;;;1.82;91.74;97135.75;5117520;28;20084;-76
2022/11/27 11:07:59;;;;;;;15.90;9.60;;;;;;;1.80;91.80;97127.16;5120097;28;20040;-76
2022/11/27 11:10:32;;;;;;;18.33;9.55;;;;;;;1.83;92.29;97126.69;5118388;28;20047;-76
2022/11/27 11:13:18;;;;;;;13.23;7.82;;;;;;;1.82;92.29;97130.38;5124033;28;20056;-76
2022/11/27 11:15:51;;;;;;;17.80;9.35;;;;;;;1.83;92.32;97133.91;5119531;27;20043;-76
2022/11/27 11:18:19;;;;;;;21.10;10.60;;;;;;;1.94;92.62;97143.78;5119477;28;20044;-76
2022/11/27 11:20:50;;;;;;;22.05;12.23;;;;;;;1.88;93.51;97144.75;5118500;28;20044;-75
2022/11/27 11:23:23;;;;;;;20.52;11.18;;;;;;;1.97;92.93;97142.44;5112579;28;20043;-75
2022/11/27 11:25:55;;;;;;;25.60;11.85;;;;;;;2.03;93.27;97146.84;5114010;28;20050;-76
2022/11/27 11:28:22;;;;;;;20.63;11.20;;;;;;;2.05;92.29;97150.13;5116483;28;20096;-77
2022/11/27 11:30:59;;;;;;;22.27;11.98;;;;;;;2.03;92.76;97152.22;5096791;28;20043;-76
2022/11/27 11:33:28;;;;;;;22.85;12.35;;;;;;;2.05;92.15;97142.88;5095979;28;20058;-77